Time;durP1;ratioP1;P1;durP2;ratioP2;P2;SDS_P1;SDS_P2;PMS_P1;PMS_P2;Temp;Humidity;BMP_temperature;BMP_pressure;BME280_temperature;BME280_humidity;BME280_pressure;Samples;Min_cycle;Max_cycle;Signal;HPM_P1;HPM_P2
2023/07/11 00:01:07;;;;;;;50.10;47.13;;;23.90;99.20;;;;;;5008884;28;20038;-76
2023/07/11 00:03:33;;;;;;;48.58;45.33;;;23.90;99.20;;;;;;5009511;28;20534;-76
2023/07/11 00:06:07;;;;;;;52.70;49.83;;;23.90;99.10;;;;;;4994181;28;20043;-76
2023/07/11 00:08:33;;;;;;;52.92;49.72;;;23.90;98.90;;;;;;5009450;28;20026;-76
2023/07/11 00:10:59;;;;;;;53.55;50.55;;;23.80;99.00;;;;;;5009121;28;20388;-76
2023/07/11 00:13:25;;;;;;;51.67;48.75;;;23.80;99.00;;;;;;5009018;28;20027;-75
2023/07/11 00:16:09;;;;;;;52.85;49.85;;;23.70;99.20;;;;;;5000143;28;20101;-76
2023/07/11 00:18:35;;;;;;;59.45;56.15;;;23.60;99.50;;;;;;5028920;28;20033;-76
2023/07/11 00:21:03;;;;;;;53.90;50.70;;;23.50;99.60;;;;;;5028582;28;20045;-76
2023/07/11 00:23:29;;;;;;;52.22;49.20;;;23.40;99.80;;;;;;5028603;28;20029;-76
2023/07/11 00:25:55;;;;;;;49.45;46.70;;;23.50;99.90;;;;;;5028647;28;20509;-76
2023/07/11 00:28:21;;;;;;;52.05;49.10;;;23.40;99.90;;;;;;5013248;28;20041;-76
2023/07/11 00:30:48;;;;;;;49.97;47.03;;;23.40;99.90;;;;;;5027901;28;20041;-75
2023/07/11 00:33:14;;;;;;;51.92;48.92;;;23.30;99.90;;;;;;5013416;28;20061;-75
2023/07/11 00:35:44;;;;;;;52.20;49.22;;;23.30;99.90;;;;;;5027051;28;20371;-75
2023/07/11 00:38:12;;;;;;;54.37;50.97;;;23.20;99.90;;;;;;5008507;28;20031;-76
2023/07/11 00:40:42;;;;;;;51.58;48.38;;;23.30;99.90;;;;;;5007094;28;20618;-76
2023/07/11 00:43:10;;;;;;;56.70;53.65;;;23.30;99.90;;;;;;5027867;28;20034;-76
2023/07/11 00:45:55;;;;;;;54.80;51.72;;;23.30;99.90;;;;;;5012437;28;20497;-76
2023/07/11 00:48:21;;;;;;;58.00;54.55;;;23.20;99.90;;;;;;5006237;28;20038;-76
2023/07/11 00:50:47;;;;;;;56.78;53.65;;;23.20;99.90;;;;;;4980971;28;20042;-76
2023/07/11 00:53:13;;;;;;;54.47;51.38;;;23.10;99.90;;;;;;5028419;28;20494;-76
2023/07/11 00:55:40;;;;;;;51.30;48.28;;;23.10;99.90;;;;;;5028109;28;20033;-76
2023/07/11 00:58:06;;;;;;;47.35;44.60;;;23.00;99.90;;;;;;5027804;28;20037;-76
2023/07/11 01:00:32;;;;;;;51.25;48.45;;;23.00;99.90;;;;;;5027506;28;20038;-76
2023/07/11 01:02:58;;;;;;;47.80;44.97;;;22.90;99.90;;;;;;5027917;28;20494;-76
2023/07/11 01:05:24;;;;;;;52.13;49.38;;;22.90;99.90;;;;;;5012674;28;20034;-76
2023/07/11 01:07:50;;;;;;;50.80;47.90;;;22.80;99.90;;;;;;5028286;28;20472;-76
2023/07/11 01:10:17;;;;;;;48.95;45.80;;;22.80;99.90;;;;;;5027841;28;20042;-76
2023/07/11 01:12:46;;;;;;;50.53;47.30;;;22.80;99.90;;;;;;5027789;28;20624;-75
2023/07/11 01:15:13;;;;;;;53.40;50.28;;;22.70;99.90;;;;;;5027308;28;20033;-76
2023/07/11 01:17:39;;;;;;;49.80;46.90;;;22.70;99.90;;;;;;5012915;28;20037;-76
2023/07/11 01:20:08;;;;;;;47.63;44.80;;;22.70;99.90;;;;;;5012674;28;20407;-76
2023/07/11 01:22:36;;;;;;;48.03;45.40;;;22.60;99.90;;;;;;5027802;28;20033;-76
2023/07/11 01:25:10;;;;;;;42.50;39.88;;;22.60;99.90;;;;;;5027846;28;20030;-76
2023/07/11 01:27:37;;;;;;;38.58;36.33;;;22.60;99.90;;;;;;5027765;28;20026;-76
2023/07/11 01:30:04;;;;;;;40.03;37.63;;;22.50;99.90;;;;;;5027326;28;20056;-74
2023/07/11 01:32:31;;;;;;;36.70;34.45;;;22.50;99.90;;;;;;5027227;28;20038;-76
2023/07/11 01:34:57;;;;;;;43.88;41.20;;;22.40;99.90;;;;;;5012795;28;20403;-76
2023/07/11 01:37:23;;;;;;;43.72;41.20;;;22.50;99.90;;;;;;5012103;28;20038;-76
2023/07/11 01:39:49;;;;;;;38.92;36.65;;;22.40;99.90;;;;;;4999836;28;20053;-76
2023/07/11 01:42:15;;;;;;;40.05;37.65;;;22.40;99.90;;;;;;5012073;28;20031;-76
2023/07/11 01:44:42;;;;;;;38.22;36.03;;;22.40;99.90;;;;;;5027768;28;20022;-76
2023/07/11 01:47:08;;;;;;;41.05;38.55;;;22.40;99.90;;;;;;5007512;28;20027;-76
2023/07/11 01:49:34;;;;;;;41.78;39.33;;;22.40;99.90;;;;;;5007707;28;20494;-76
2023/07/11 01:52:11;;;;;;;38.05;35.70;;;22.40;99.90;;;;;;4992764;28;20565;-76
2023/07/11 01:54:37;;;;;;;39.28;37.10;;;22.30;99.90;;;;;;4992559;28;20026;-76
2023/07/11 01:57:03;;;;;;;38.03;35.80;;;22.30;99.90;;;;;;5007698;28;20480;-76
2023/07/11 01:59:29;;;;;;;31.42;29.38;;;22.20;99.90;;;;;;5007145;28;20030;-76
2023/07/11 02:01:55;;;;;;;35.10;32.92;;;22.20;99.90;;;;;;4998655;28;20037;-76
2023/07/11 02:04:21;;;;;;;31.70;29.63;;;22.10;99.90;;;;;;4983826;28;20034;-76
2023/07/11 02:06:49;;;;;;;34.10;31.90;;;22.20;99.90;;;;;;4994556;28;20034;-76
2023/07/11 02:09:16;;;;;;;34.15;32.15;;;22.20;99.90;;;;;;5006135;28;20030;-76
2023/07/11 02:11:42;;;;;;;33.67;31.60;;;22.10;99.90;;;;;;5018446;28;20510;-76
2023/07/11 02:14:08;;;;;;;28.73;26.77;;;22.00;99.90;;;;;;5008664;28;20034;-75
2023/07/11 02:16:34;;;;;;;28.20;26.30;;;22.00;99.90;;;;;;4994432;28;20384;-76
2023/07/11 02:19:00;;;;;;;27.92;26.10;;;22.00;99.90;;;;;;4995421;28;20026;-76
2023/07/11 02:21:27;;;;;;;31.77;29.60;;;22.00;99.90;;;;;;4994816;28;20065;-76
2023/07/11 02:23:53;;;;;;;25.13;23.42;;;21.90;99.90;;;;;;4994686;28;20031;-76
2023/07/11 02:26:19;;;;;;;25.85;23.92;;;21.80;99.90;;;;;;4994852;28;20035;-76
2023/07/11 02:28:45;;;;;;;25.60;23.75;;;21.80;99.90;;;;;;4995520;28;20026;-76
2023/07/11 02:31:11;;;;;;;25.05;23.25;;;21.80;99.90;;;;;;5002092;28;20049;-76
2023/07/11 02:33:38;;;;;;;20.67;19.25;;;21.80;99.90;;;;;;5013175;28;20030;-76
2023/07/11 02:36:04;;;;;;;23.27;21.73;;;21.80;99.90;;;;;;5004988;28;20387;-76
2023/07/11 02:38:30;;;;;;;24.58;23.08;;;21.80;99.90;;;;;;4995755;28;20026;-76
2023/07/11 02:40:56;;;;;;;24.65;22.83;;;21.70;99.90;;;;;;5010295;28;20479;-76
2023/07/11 02:43:22;;;;;;;26.20;24.60;;;21.70;99.90;;;;;;5015514;28;20037;-76
2023/07/11 02:45:49;;;;;;;19.90;18.50;;;21.80;99.90;;;;;;5014877;28;20034;-76
2023/07/11 02:48:15;;;;;;;17.80;16.58;;;21.90;99.90;;;;;;5009489;28;20463;-76
2023/07/11 02:50:41;;;;;;;18.33;16.92;;;21.90;99.90;;;;;;4999777;28;20050;-76
2023/07/11 02:53:07;;;;;;;34.40;32.50;;;21.90;99.90;;;;;;5015046;28;20494;-76
2023/07/11 02:55:37;;;;;;;31.08;29.23;;;21.90;99.90;;;;;;5030353;28;20041;-76
2023/07/11 02:58:03;;;;;;;24.60;22.90;;;21.90;99.90;;;;;;5015333;28;20053;-76
2023/07/11 03:00:29;;;;;;;19.10;18.00;;;21.90;99.90;;;;;;5014640;28;20041;-76
2023/07/11 03:02:55;;;;;;;21.50;20.13;;;21.80;99.90;;;;;;5014236;28;20377;-76
2023/07/11 03:05:21;;;;;;;25.65;23.90;;;21.80;99.90;;;;;;5014793;28;20036;-76
2023/07/11 03:07:47;;;;;;;19.65;18.17;;;21.70;99.90;;;;;;5014843;28;20379;-76
2023/07/11 03:10:14;;;;;;;19.92;18.33;;;21.70;99.90;;;;;;5030100;28;20460;-76
2023/07/11 03:12:40;;;;;;;18.88;17.58;;;21.60;99.90;;;;;;5030298;28;20045;-76
2023/07/11 03:15:06;;;;;;;19.98;18.60;;;21.60;99.90;;;;;;5013572;28;20475;-76
2023/07/11 03:17:33;;;;;;;18.02;16.75;;;21.60;99.90;;;;;;5014681;28;20418;-76
2023/07/11 03:19:59;;;;;;;18.25;16.88;;;21.60;99.90;;;;;;5030212;28;20482;-76
2023/07/11 03:22:26;;;;;;;18.30;17.02;;;21.60;99.90;;;;;;5029476;28;20041;-76
2023/07/11 03:24:52;;;;;;;22.70;21.13;;;21.50;99.90;;;;;;5013526;28;20041;-76
2023/07/11 03:27:19;;;;;;;25.63;24.20;;;21.50;99.90;;;;;;5014331;28;20033;-76
2023/07/11 03:29:45;;;;;;;22.20;20.73;;;21.50;99.90;;;;;;5030067;28;20025;-76
2023/07/11 03:32:11;;;;;;;17.70;16.40;;;21.40;99.90;;;;;;5013779;28;20446;-76
2023/07/11 03:34:37;;;;;;;19.85;18.60;;;21.40;99.90;;;;;;5029864;28;20026;-76
2023/07/11 03:37:03;;;;;;;20.75;19.17;;;21.40;99.90;;;;;;5000143;28;20396;-75
2023/07/11 03:39:29;;;;;;;21.50;20.15;;;21.40;99.90;;;;;;4999520;28;20029;-76
2023/07/11 03:41:56;;;;;;;20.75;19.30;;;21.30;99.90;;;;;;5013019;28;20041;-76
2023/07/11 03:44:22;;;;;;;16.85;15.70;;;21.40;99.90;;;;;;5014540;28;20029;-76
2023/07/11 03:46:48;;;;;;;20.90;19.52;;;21.40;99.90;;;;;;5013622;28;20042;-76
2023/07/11 03:49:14;;;;;;;16.63;15.32;;;21.40;99.90;;;;;;5000363;28;20033;-76
2023/07/11 03:51:41;;;;;;;16.10;14.80;;;21.40;99.90;;;;;;5005340;28;20487;-76
2023/07/11 03:54:07;;;;;;;15.50;14.30;;;21.40;99.90;;;;;;5029508;28;20079;-76
2023/07/11 03:56:33;;;;;;;15.15;13.95;;;21.30;99.90;;;;;;5029124;28;20057;-76
2023/07/11 03:58:59;;;;;;;15.27;14.18;;;21.30;99.90;;;;;;5014243;28;20040;-76
2023/07/11 04:01:25;;;;;;;16.08;14.68;;;21.20;99.90;;;;;;5029079;28;20042;-76
2023/07/11 04:03:52;;;;;;;16.77;15.50;;;21.20;99.90;;;;;;5013950;28;20033;-75
2023/07/11 04:06:18;;;;;;;14.40;13.15;;;21.10;99.90;;;;;;5028855;28;20030;-76
2023/07/11 04:08:44;;;;;;;15.70;14.40;;;21.10;99.90;;;;;;5029183;28;20037;-76
2023/07/11 04:11:10;;;;;;;16.38;15.18;;;21.10;99.90;;;;;;5028856;28;20042;-76
2023/07/11 04:13:36;;;;;;;17.70;16.55;;;21.10;99.90;;;;;;5012528;28;20045;-76
2023/07/11 04:16:02;;;;;;;16.27;14.85;;;21.10;99.90;;;;;;5013200;28;20037;-76
2023/07/11 04:18:28;;;;;;;14.05;12.93;;;21.00;99.90;;;;;;5013974;28;20029;-76
2023/07/11 04:20:55;;;;;;;14.43;13.30;;;21.00;99.90;;;;;;5013259;28;20030;-76
2023/07/11 04:23:21;;;;;;;13.82;12.73;;;20.90;99.90;;;;;;5013736;28;20032;-75
2023/07/11 04:25:47;;;;;;;14.70;13.43;;;21.00;99.90;;;;;;5013370;28;20026;-76
2023/07/11 04:28:13;;;;;;;15.63;14.30;;;21.00;99.90;;;;;;5029000;28;20497;-76
2023/07/11 04:30:39;;;;;;;15.10;13.80;;;20.90;99.90;;;;;;5028160;28;20037;-76
2023/07/11 04:33:05;;;;;;;14.60;13.40;;;20.90;99.90;;;;;;5013465;28;20030;-76
2023/07/11 04:35:31;;;;;;;13.13;12.00;;;20.80;99.90;;;;;;5012922;28;20098;-76
2023/07/11 04:37:58;;;;;;;12.38;11.27;;;20.60;99.90;;;;;;4993421;28;20038;-76
2023/07/11 04:40:24;;;;;;;12.30;10.60;;;20.70;99.90;;;;;;5005301;28;20030;-76
2023/07/11 04:42:50;;;;;;;13.25;12.15;;;20.80;99.90;;;;;;5028452;28;20475;-76
2023/07/11 04:45:16;;;;;;;12.57;11.38;;;20.80;99.90;;;;;;5012568;28;20040;-76
2023/07/11 04:47:42;;;;;;;12.40;11.27;;;20.90;99.90;;;;;;5011919;28;20032;-76
2023/07/11 04:50:08;;;;;;;13.32;12.05;;;20.90;99.90;;;;;;4993106;28;20055;-76
2023/07/11 04:52:34;;;;;;;15.82;14.43;;;20.90;99.90;;;;;;5012830;28;20045;-76
2023/07/11 04:55:00;;;;;;;14.88;13.63;;;20.90;99.90;;;;;;5028633;28;20025;-76
2023/07/11 04:57:27;;;;;;;14.02;12.73;;;20.80;99.90;;;;;;5012689;28;20041;-76
2023/07/11 04:59:53;;;;;;;13.93;12.65;;;20.80;99.90;;;;;;5013189;28;20030;-76
2023/07/11 05:02:19;;;;;;;13.02;11.13;;;20.90;99.90;;;;;;5012139;28;20034;-76
2023/07/11 05:04:45;;;;;;;14.30;12.90;;;20.90;99.90;;;;;;5012699;28;20037;-76
2023/07/11 05:07:11;;;;;;;14.80;13.35;;;20.90;99.90;;;;;;5028127;28;20034;-76
2023/07/11 05:09:38;;;;;;;16.17;14.90;;;20.90;99.90;;;;;;5011638;28;20041;-76
2023/07/11 05:12:04;;;;;;;17.58;16.27;;;21.00;99.90;;;;;;5012385;28;20042;-76
2023/07/11 05:14:32;;;;;;;18.48;16.98;;;21.00;99.90;;;;;;5012917;28;20022;-76
2023/07/11 05:16:58;;;;;;;24.25;22.45;;;21.20;99.90;;;;;;5027348;28;20501;-75
2023/07/11 05:19:24;;;;;;;27.85;25.98;;;21.40;99.90;;;;;;5027726;28;20038;-76
2023/07/11 05:21:50;;;;;;;35.35;32.92;;;21.50;99.90;;;;;;5027779;28;20038;-76
2023/07/11 05:24:16;;;;;;;44.95;42.42;;;21.70;99.90;;;;;;5012766;28;20033;-76
2023/07/11 05:26:42;;;;;;;57.72;54.53;;;21.80;99.90;;;;;;5012303;28;20038;-76
2023/07/11 05:29:08;;;;;;;68.28;64.55;;;21.90;99.90;;;;;;5012757;28;20459;-76
2023/07/11 05:31:34;;;;;;;70.35;66.18;;;22.00;99.90;;;;;;5011861;28;20050;-76
2023/07/11 05:34:00;;;;;;;61.35;57.95;;;22.20;99.90;;;;;;5027561;28;20490;-76
2023/07/11 05:36:33;;;;;;;56.90;53.60;;;22.30;99.90;;;;;;4997125;28;20046;-76
2023/07/11 05:39:05;;;;;;;58.30;54.75;;;22.50;99.90;;;;;;4973436;28;20399;-75
2023/07/11 05:41:31;;;;;;;62.30;58.95;;;22.70;99.90;;;;;;5012241;28;20022;-75
2023/07/11 05:43:57;;;;;;;60.88;57.25;;;22.80;99.90;;;;;;5027717;28;20026;-76
2023/07/11 05:46:24;;;;;;;58.63;55.13;;;23.10;99.90;;;;;;5011358;28;20042;-75
2023/07/11 05:48:51;;;;;;;58.10;54.65;;;23.20;99.90;;;;;;5017092;28;20388;-76
2023/07/11 05:51:18;;;;;;;56.47;53.35;;;23.30;99.90;;;;;;5005019;28;20042;-76
2023/07/11 05:53:44;;;;;;;56.42;53.08;;;23.40;99.90;;;;;;5031661;28;20376;-75
2023/07/11 05:56:10;;;;;;;55.22;51.97;;;23.60;99.90;;;;;;5031516;28;20459;-76
2023/07/11 05:58:36;;;;;;;55.75;52.63;;;23.70;99.90;;;;;;5015122;28;20054;-76
2023/07/11 06:01:03;;;;;;;54.22;50.88;;;23.80;99.90;;;;;;5030719;28;20030;-76
2023/07/11 06:03:29;;;;;;;56.42;53.20;;;23.90;99.90;;;;;;5031435;28;20034;-76
2023/07/11 06:06:00;;;;;;;54.42;51.22;;;24.00;99.90;;;;;;5031151;28;20460;-75
2023/07/11 06:08:26;;;;;;;;;;;24.20;99.90;;;;;;5031772;28;20042;-75
2023/07/11 06:10:55;;;;;;;56.88;53.78;;;24.30;99.90;;;;;;5016003;28;20358;-76
2023/07/11 06:13:22;;;;;;;58.20;54.78;;;24.40;99.90;;;;;;5029186;28;20040;-76
2023/07/11 06:15:48;;;;;;;58.83;55.47;;;24.50;99.90;;;;;;4987179;28;20026;-76
2023/07/11 06:18:14;;;;;;;59.95;56.53;;;24.60;99.90;;;;;;5031617;28;20030;-75
2023/07/11 06:20:40;;;;;;;59.13;55.75;;;24.60;99.90;;;;;;5015645;28;20018;-75
2023/07/11 06:23:06;;;;;;;64.55;60.88;;;24.70;99.90;;;;;;5015801;28;20025;-76
2023/07/11 06:25:33;;;;;;;63.10;59.60;;;24.70;99.90;;;;;;5015692;28;20026;-76
2023/07/11 06:27:59;;;;;;;62.95;59.30;;;24.90;99.90;;;;;;5031022;28;20022;-76
2023/07/11 06:30:25;;;;;;;63.70;59.88;;;25.00;99.90;;;;;;5014597;28;20026;-75
2023/07/11 06:32:51;;;;;;;63.00;59.70;;;25.10;99.90;;;;;;5014417;28;20076;-76
2023/07/11 06:35:17;;;;;;;64.65;60.85;;;25.20;99.90;;;;;;5030684;28;20027;-75
2023/07/11 06:37:43;;;;;;;65.88;62.17;;;25.30;99.90;;;;;;5015413;28;20045;-76
2023/07/11 06:40:10;;;;;;;71.00;67.07;;;25.40;99.90;;;;;;5015561;28;20022;-76
2023/07/11 06:42:36;;;;;;;70.88;66.70;;;25.60;99.90;;;;;;4994743;28;20042;-76
2023/07/11 06:45:02;;;;;;;63.17;59.53;;;25.70;99.90;;;;;;4996228;28;20030;-76
2023/07/11 06:47:28;;;;;;;65.45;61.95;;;25.80;99.90;;;;;;5025614;28;20038;-76
2023/07/11 06:49:54;;;;;;;66.78;62.88;;;25.90;99.90;;;;;;5014938;28;20026;-76
2023/07/11 06:52:20;;;;;;;64.15;60.47;;;25.90;99.90;;;;;;5014979;28;20045;-76
2023/07/11 06:54:46;;;;;;;60.92;57.50;;;26.00;99.90;;;;;;5015349;28;20022;-76
2023/07/11 06:57:14;;;;;;;63.78;60.20;;;26.10;99.90;;;;;;5030322;28;20034;-76
2023/07/11 06:59:41;;;;;;;63.95;60.30;;;26.20;99.90;;;;;;5030205;28;20029;-73
2023/07/11 07:02:08;;;;;;;57.58;54.47;;;26.30;99.90;;;;;;5013917;28;20483;-73
2023/07/11 07:04:34;;;;;;;54.30;51.33;;;26.50;99.90;;;;;;5015023;28;20026;-73
2023/07/11 07:07:01;;;;;;;57.13;53.60;;;26.60;99.90;;;;;;5014901;28;20526;-73
2023/07/11 07:09:27;;;;;;;58.40;54.90;;;26.80;99.90;;;;;;5015014;28;20401;-73
2023/07/11 07:11:53;;;;;;;56.72;53.00;;;26.80;99.90;;;;;;5014586;28;20037;-73
2023/07/11 07:14:19;;;;;;;61.13;57.72;;;26.90;99.90;;;;;;5014792;28;20376;-73
2023/07/11 07:16:45;;;;;;;58.63;55.17;;;26.90;99.90;;;;;;5014192;28;20045;-75
2023/07/11 07:19:11;;;;;;;57.40;53.97;;;27.00;99.90;;;;;;5030259;28;20467;-76
2023/07/11 07:21:37;;;;;;;64.18;59.92;;;27.20;99.90;;;;;;5014451;28;20045;-76
2023/07/11 07:24:04;;;;;;;66.32;62.53;;;27.30;99.90;;;;;;5030152;28;20427;-76
2023/07/11 07:26:30;;;;;;;73.55;69.57;;;27.30;99.90;;;;;;5014305;28;20482;-76
2023/07/11 07:28:56;;;;;;;66.25;62.58;;;27.30;99.90;;;;;;5014450;28;20037;-76
2023/07/11 07:31:22;;;;;;;76.00;71.72;;;27.30;99.90;;;;;;5013851;28;20037;-76
2023/07/11 07:33:49;;;;;;;71.80;67.70;;;27.20;99.90;;;;;;5014554;28;20037;-76
2023/07/11 07:36:15;;;;;;;68.57;64.78;;;27.10;99.90;;;;;;5029709;28;20026;-76
2023/07/11 07:38:41;;;;;;;70.88;66.80;;;27.10;99.90;;;;;;5014647;28;20049;-76
2023/07/11 07:41:08;;;;;;;73.60;69.30;;;27.20;99.90;;;;;;5014068;28;20022;-76
2023/07/11 07:43:36;;;;;;;74.68;70.57;;;27.20;99.90;;;;;;5014094;28;20030;-76
2023/07/11 07:46:02;;;;;;;65.20;61.35;;;27.30;99.90;;;;;;5045115;28;20034;-76
2023/07/11 07:48:29;;;;;;;67.57;63.75;;;27.30;99.90;;;;;;5045850;28;20018;-76
2023/07/11 07:51:05;;;;;;;75.22;71.03;;;27.20;99.90;;;;;;5012765;28;20038;-76
2023/07/11 07:53:32;;;;;;;68.88;65.15;;;27.10;99.90;;;;;;5029526;28;20041;-74
2023/07/11 07:56:05;;;;;;;70.28;66.28;;;26.90;99.90;;;;;;5013815;28;20021;-73
2023/07/11 07:58:31;;;;;;;76.97;72.53;;;27.00;99.90;;;;;;5028457;28;20061;-73
2023/07/11 08:00:57;;;;;;;89.22;84.55;;;27.10;99.90;;;;;;5028821;28;20037;-74
2023/07/11 08:03:23;;;;;;;99.18;94.18;;;27.20;99.90;;;;;;5014258;28;20112;-74
2023/07/11 08:05:52;;;;;;;92.60;87.60;;;27.20;99.90;;;;;;5013872;28;20029;-73
2023/07/11 08:08:19;;;;;;;93.68;88.80;;;27.10;99.90;;;;;;5029311;28;20029;-73
2023/07/11 08:10:45;;;;;;;97.50;92.03;;;27.10;99.90;;;;;;5012301;28;20033;-73
2023/07/11 08:13:11;;;;;;;102.65;97.40;;;27.10;99.90;;;;;;5027752;28;20044;-73
2023/07/11 08:15:37;;;;;;;95.60;90.40;;;27.30;99.90;;;;;;5028388;28;20489;-74
2023/07/11 08:18:03;;;;;;;88.45;83.80;;;27.30;99.90;;;;;;5029034;28;20030;-74
2023/07/11 08:20:29;;;;;;;78.55;74.35;;;27.30;99.90;;;;;;5028792;28;20767;-74
2023/07/11 08:22:55;;;;;;;88.85;83.95;;;27.20;99.90;;;;;;5012532;28;20053;-74
2023/07/11 08:25:21;;;;;;;92.97;87.95;;;27.10;99.90;;;;;;5012156;28;20030;-74
2023/07/11 08:27:47;;;;;;;89.38;84.38;;;27.10;99.90;;;;;;5028403;28;20022;-74
2023/07/11 08:30:14;;;;;;;91.82;87.00;;;27.30;99.90;;;;;;5012716;28;20034;-74
2023/07/11 08:32:40;;;;;;;81.20;76.95;;;27.30;99.90;;;;;;5012158;28;20053;-74
2023/07/11 08:35:06;;;;;;;70.22;66.43;;;27.40;99.90;;;;;;5013520;28;20375;-74
2023/07/11 08:37:33;;;;;;;78.35;73.93;;;27.40;99.90;;;;;;5028159;28;20037;-74
2023/07/11 08:40:00;;;;;;;75.20;71.32;;;27.60;99.90;;;;;;5045065;28;20503;-74
2023/07/11 08:42:34;;;;;;;77.50;73.13;;;27.70;99.90;;;;;;5012610;28;20037;-74
2023/07/11 08:45:25;;;;;;;80.88;76.63;;;27.80;99.90;;;;;;5028426;28;20038;-74
2023/07/11 08:47:53;;;;;;;;;;;27.90;99.90;;;;;;5027938;28;20041;-74
2023/07/11 08:50:26;;;;;;;64.35;60.92;;;27.90;99.90;;;;;;5011778;28;19924;-74
2023/07/11 08:52:59;;;;;;;70.40;66.50;;;28.20;99.90;;;;;;5011423;28;20061;-74
2023/07/11 08:55:29;;;;;;;74.68;70.78;;;28.40;99.90;;;;;;5026964;28;20034;-75
2023/07/11 08:58:17;;;;;;;64.45;60.80;;;28.40;99.90;;;;;;5028031;28;20030;-74
2023/07/11 09:00:44;;;;;;;67.80;64.05;;;28.40;99.90;;;;;;5026032;28;20374;-74
2023/07/11 09:03:25;;;;;;;63.58;60.25;;;28.50;99.90;;;;;;5028237;28;20040;-74
2023/07/11 09:05:57;;;;;;;64.00;60.45;;;28.70;99.90;;;;;;5012856;28;20026;-74
2023/07/11 09:08:23;;;;;;;60.00;56.72;;;28.70;99.90;;;;;;5028072;28;20407;-75
2023/07/11 09:11:18;;;;;;;64.32;60.63;;;28.50;99.90;;;;;;5027427;28;20025;-75
2023/07/11 09:13:44;;;;;;;65.32;61.58;;;28.50;99.90;;;;;;5025727;28;20039;-74
2023/07/11 09:16:35;;;;;;;70.63;66.78;;;28.50;99.90;;;;;;5012049;28;20014;-74
2023/07/11 09:19:20;;;;;;;80.70;76.18;;;28.50;99.90;;;;;;5012826;28;20026;-76
2023/07/11 09:22:17;;;;;;;64.72;61.00;;;28.40;99.90;;;;;;5027523;28;20022;-74
2023/07/11 09:24:53;;;;;;;58.00;54.63;;;28.40;99.90;;;;;;5025399;28;20037;-75
2023/07/11 09:27:24;;;;;;;67.75;63.83;;;28.40;99.90;;;;;;5027562;28;20030;-75
2023/07/11 09:29:50;;;;;;;70.45;66.28;;;28.40;99.90;;;;;;5027516;28;20041;-74
2023/07/11 09:32:16;;;;;;;78.28;74.30;;;28.40;99.90;;;;;;5027071;28;20037;-75
2023/07/11 09:34:44;;;;;;;68.25;64.55;;;28.40;99.90;;;;;;5027647;28;20037;-74
2023/07/11 09:37:32;;;;;;;58.20;55.00;;;28.60;99.90;;;;;;5027201;28;20026;-75
2023/07/11 09:40:03;;;;;;;59.17;55.95;;;28.70;99.90;;;;;;5012066;28;20041;-75
2023/07/11 09:42:46;;;;;;;58.13;55.08;;;28.80;99.90;;;;;;5011036;28;20026;-75
2023/07/11 09:45:14;;;;;;;55.83;52.63;;;28.90;99.90;;;;;;5026417;28;20022;-75
2023/07/11 09:47:41;;;;;;;60.53;57.13;;;29.00;99.90;;;;;;5027737;28;20029;-75
2023/07/11 09:50:32;;;;;;;78.65;74.32;;;29.00;99.90;;;;;;5010484;28;20049;-75
2023/07/11 09:53:00;;;;;;;72.90;69.00;;;29.10;99.90;;;;;;4992460;28;20039;-74
2023/07/11 09:55:34;;;;;;;77.13;73.07;;;29.10;99.90;;;;;;4994023;28;20038;-75
2023/07/11 09:58:01;;;;;;;64.97;61.42;;;29.20;99.90;;;;;;5026786;28;20049;-75
2023/07/11 10:00:28;;;;;;;60.60;57.03;;;29.20;99.90;;;;;;5026751;28;20041;-74
2023/07/11 10:02:56;;;;;;;60.85;57.60;;;29.30;99.90;;;;;;5027399;28;20026;-75
2023/07/11 10:05:23;;;;;;;65.38;61.78;;;29.50;99.90;;;;;;5026877;28;20030;-75
2023/07/11 10:08:02;;;;;;;57.20;54.20;;;29.60;99.90;;;;;;5027218;28;20037;-74
2023/07/11 10:10:28;;;;;;;50.83;47.92;;;29.70;99.90;;;;;;5027101;28;20022;-75
2023/07/11 10:12:55;;;;;;;51.60;48.75;;;29.90;99.90;;;;;;5027395;28;20068;-74
2023/07/11 10:15:23;;;;;;;57.13;53.90;;;30.00;99.90;;;;;;5026249;28;20041;-74
2023/07/11 10:17:53;;;;;;;63.75;60.38;;;30.10;99.50;;;;;;5027096;28;20022;-75
2023/07/11 10:20:20;;;;;;;64.97;61.35;;;30.10;98.60;;;;;;5026813;28;20375;-75
2023/07/11 10:22:49;;;;;;;63.17;59.70;;;30.00;97.80;;;;;;5010431;28;20034;-75
2023/07/11 10:25:30;;;;;;;66.65;63.25;;;30.10;98.40;;;;;;5010181;28;20082;-75
2023/07/11 10:28:08;;;;;;;63.30;59.92;;;30.10;98.00;;;;;;5009762;28;20018;-75
2023/07/11 10:30:34;;;;;;;62.92;59.63;;;30.10;97.20;;;;;;5008073;28;20034;-75
2023/07/11 10:33:05;;;;;;;68.00;64.10;;;30.10;97.70;;;;;;5027030;28;20042;-75
2023/07/11 10:35:31;;;;;;;61.53;58.15;;;30.10;98.10;;;;;;4994685;28;20018;-75
2023/07/11 10:38:00;;;;;;;61.65;58.45;;;30.20;97.80;;;;;;5047282;28;20037;-75
2023/07/11 10:40:28;;;;;;;64.50;61.08;;;30.20;97.90;;;;;;5014380;28;20026;-74
2023/07/11 10:43:05;;;;;;;61.40;57.78;;;30.30;98.00;;;;;;5030644;28;20034;-74
2023/07/11 10:45:52;;;;;;;64.43;61.08;;;30.30;97.30;;;;;;5046767;28;20029;-75
2023/07/11 10:48:22;;;;;;;62.80;59.47;;;30.30;98.10;;;;;;5033731;28;20451;-75
2023/07/11 10:50:57;;;;;;;68.10;64.57;;;30.30;98.10;;;;;;5014524;28;20053;-74
2023/07/11 10:53:30;;;;;;;66.03;62.47;;;30.50;98.10;;;;;;5030692;28;20931;-75
2023/07/11 10:56:01;;;;;;;71.72;67.93;;;30.60;98.00;;;;;;5029540;28;20366;-74
2023/07/11 10:58:28;;;;;;;69.18;65.43;;;30.60;97.60;;;;;;5030215;28;20490;-75
2023/07/11 11:01:00;;;;;;;72.05;68.30;;;30.70;97.90;;;;;;5029871;28;20030;-74
2023/07/11 11:03:41;;;;;;;72.22;67.72;;;30.80;97.60;;;;;;5014943;28;20024;-75
2023/07/11 11:06:43;;;;;;;69.28;65.53;;;30.80;97.80;;;;;;5013423;28;20038;-75
2023/07/11 11:09:17;;;;;;;70.70;66.90;;;30.80;97.60;;;;;;5026147;28;20042;-75
2023/07/11 11:11:54;;;;;;;78.90;74.80;;;30.70;97.70;;;;;;5029410;28;20034;-75
2023/07/11 11:14:43;;;;;;;70.65;66.55;;;30.70;97.80;;;;;;5030348;28;20042;-74
2023/07/11 11:17:16;;;;;;;67.18;63.47;;;30.60;97.60;;;;;;5029522;28;20049;-74
2023/07/11 11:20:07;;;;;;;66.13;62.70;;;30.50;97.80;;;;;;5029599;28;20353;-75
2023/07/11 11:22:33;;;;;;;;;;;30.60;97.60;;;;;;5013951;28;20045;-75
2023/07/11 11:25:00;;;;;;;72.78;69.07;;;30.60;97.90;;;;;;5014950;28;20378;-75
2023/07/11 11:27:45;;;;;;;72.70;68.90;;;30.30;98.20;;;;;;5029582;28;20490;-76
2023/07/11 11:30:33;;;;;;;60.15;57.05;;;30.30;98.40;;;;;;5029161;28;20026;-75
2023/07/11 11:33:35;;;;;;;65.35;62.00;;;30.40;98.50;;;;;;5029942;28;20053;-75
2023/07/11 11:36:28;;;;;;;62.92;59.53;;;30.50;98.80;;;;;;5026212;28;20038;-75
2023/07/11 11:38:57;;;;;;;58.70;55.58;;;30.70;98.70;;;;;;5027162;28;20036;-75
2023/07/11 11:41:35;;;;;;;73.57;69.97;;;30.80;98.40;;;;;;5014108;28;20026;-75
2023/07/11 11:44:01;;;;;;;70.15;66.65;;;30.90;98.70;;;;;;5028917;28;20030;-75
2023/07/11 11:46:27;;;;;;;66.03;62.78;;;31.00;99.00;;;;;;5028814;28;20037;-74
2023/07/11 11:48:56;;;;;;;70.65;66.95;;;31.00;98.20;;;;;;5037082;28;20026;-75
2023/07/11 11:51:23;;;;;;;64.75;61.38;;;31.00;98.60;;;;;;5012733;28;20511;-75
2023/07/11 11:54:22;;;;;;;71.57;67.97;;;31.10;98.00;;;;;;5029497;28;20049;-75
2023/07/11 11:56:52;;;;;;;66.35;62.85;;;31.20;97.80;;;;;;5012053;28;20038;-75
2023/07/11 11:59:25;;;;;;;72.65;68.97;;;31.40;97.50;;;;;;5029454;28;20021;-76
2023/07/11 12:01:55;;;;;;;75.13;71.43;;;31.40;96.50;;;;;;5027516;28;20049;-75
2023/07/11 12:04:27;;;;;;;66.47;63.15;;;31.20;96.10;;;;;;5014249;28;20038;-76
2023/07/11 12:07:05;;;;;;;68.82;65.22;;;31.10;96.90;;;;;;5013855;28;20030;-75
2023/07/11 12:09:37;;;;;;;73.22;69.47;;;31.00;97.00;;;;;;5014035;28;20041;-75
2023/07/11 12:12:04;;;;;;;66.53;62.97;;;31.00;97.20;;;;;;5013449;28;20490;-76
2023/07/11 12:14:36;;;;;;;70.50;67.00;;;31.10;97.20;;;;;;5013810;28;20058;-75
2023/07/11 12:17:03;;;;;;;70.18;66.72;;;31.30;96.90;;;;;;5013069;28;20038;-75
2023/07/11 12:19:37;;;;;;;76.93;73.18;;;31.30;97.10;;;;;;5028599;28;20379;-75
2023/07/11 12:22:06;;;;;;;72.93;69.28;;;31.30;96.70;;;;;;5028189;28;20033;-75
2023/07/11 12:24:32;;;;;;;72.45;68.65;;;31.20;96.30;;;;;;5028740;28;20045;-75
2023/07/11 12:27:17;;;;;;;68.32;64.97;;;31.30;97.20;;;;;;5013306;28;20045;-75
2023/07/11 12:29:46;;;;;;;75.25;71.45;;;31.30;97.10;;;;;;5013738;28;20026;-76
2023/07/11 12:32:35;;;;;;;78.28;74.38;;;31.30;97.10;;;;;;5012795;28;20034;-75
2023/07/11 12:35:04;;;;;;;75.53;71.65;;;31.40;96.90;;;;;;5028972;28;20030;-75
2023/07/11 12:37:51;;;;;;;71.07;67.57;;;31.40;96.50;;;;;;5011807;28;20042;-75